Latest Weather Observations for Edithburgh

IDS60801

Issued at 1:31 pm CDT Tuesday 27 January 2015 (issued every 30 minutes, with the page automatically refreshed every 10 minutes)

About weather observations | Map of weather stations | Latest weather observations for SA | Other Formats
Station Details ID: 022046 Name: EDITHBURGH Lat: -35.11 Lon: 137.74 Height: 6.0 m
Data from the previous 72 hours. | See also: Recent months at Edithburgh
Date/Time
CDT
Temp
°C
App
Temp
°C
Dew
Point
Rel
Hum
%
Delta-T
°C
Wind Press
QNH
hPa
Press
MSL
hPa
Rain
since 9 am
mm
Dir
 
Spd
km/h
Gust
km/h
Spd
kts
Gust
kts
27/01:30pm 20.1 14.9 8.8 48 5.9 SSE 26 33 14 18 1018.0 1018.0 0.0
27/01:00pm 19.7 14.4 7.0 43 6.4 SSE 24 32 13 17 1018.2 1018.2 0.0
27/12:30pm 19.8 15.1 7.7 45 6.2 SSE 22 28 12 15 1018.4 1018.4 0.0
27/12:00pm 19.9 14.4 6.0 40 6.9 SE 24 30 13 16 1018.6 1018.6 0.0
27/11:30am 18.7 15.1 8.2 50 5.4 SE 17 24 9 13 1018.8 1018.8 0.0
27/11:00am 17.9 14.1 9.7 58 4.3 ESE 20 26 11 14 1018.8 1018.8 0.0
27/10:30am 18.7 15.5 10.1 57 4.6 ESE 17 22 9 12 1018.8 1018.8 0.0
27/10:00am 17.8 14.8 10.5 62 3.9 ESE 17 22 9 12 1018.8 1018.8 0.0
27/09:30am 17.9 13.6 9.5 58 4.4 SE 22 30 12 16 1018.9 1018.9 0.0
27/09:00am 18.4 14.3 8.7 53 5.0 SE 20 26 11 14 1019.0 1019.0 0.0
27/08:30am 17.8 13.3 8.4 54 4.8 SSE 22 30 12 16 1018.7 1018.7 0.0
27/08:00am 17.2 12.9 7.7 53 4.8 SE 20 28 11 15 1018.6 1018.6 0.0
27/07:30am 16.7 12.4 7.7 55 4.5 SE 20 28 11 15 1018.2 1018.2 0.0
27/07:00am 16.4 12.0 7.6 56 4.4 SE 20 28 11 15 1018.1 1018.1 0.0
27/06:30am 16.1 11.8 7.7 57 4.2 SE 20 30 11 16 1017.9 1017.9 0.0
27/06:00am 16.2 11.6 8.3 59 4.0 SE 22 28 12 15 1017.6 1017.6 0.0
27/05:30am 16.3 11.7 8.0 58 4.2 SSE 22 32 12 17 1017.4 1017.4 0.0
27/05:00am 16.2 11.8 7.6 56 4.3 SE 20 28 11 15 1017.2 1017.2 0.0
27/04:30am 16.1 11.6 7.0 54 4.5 SE 20 26 11 14 1017.1 1017.1 0.0
27/04:00am 16.0 11.3 7.8 58 4.1 SE 22 30 12 16 1017.2 1017.2 0.0
27/03:30am 16.2 11.1 7.8 57 4.2 SE 24 30 13 16 1017.2 1017.2 0.0
27/03:00am 16.2 11.1 7.8 57 4.2 SSE 24 30 13 16 1017.3 1017.3 0.0
27/02:30am 16.3 11.2 7.5 56 4.4 SE 24 32 13 17 1017.5 1017.5 0.0
27/02:00am 16.1 11.4 7.7 57 4.2 SE 22 28 12 15 1017.7 1017.7 0.0
27/01:30am 16.3 11.8 8.4 59 4.0 SSE 22 32 12 17 1018.0 1018.0 0.0
27/01:00am 16.4 11.9 8.5 59 4.0 SSE 22 28 12 15 1018.3 1018.3 0.0
27/12:30am 16.3 11.7 8.2 58 4.1 SSE 22 32 12 17 1018.5 1018.5 0.0
27/12:00am 16.0 11.5 7.1 55 4.4 SSE 20 28 11 15 1018.6 1018.6 0.0
 
Date/Time
CDT
Temp
°C
App
Temp
°C
Dew
Point
Rel
Hum
%
Delta-T
°C
Wind Press
QNH
hPa
Press
MSL
hPa
Rain
since 9 am
mm
Dir
 
Spd
km/h
Gust
km/h
Spd
kts
Gust
kts
26/11:30pm 16.0 11.0 6.6 53 4.6 SSE 22 30 12 16 1018.7 1018.7 0.0
26/11:00pm 16.1 10.4 6.5 53 4.7 SSE 26 33 14 18 1018.8 1018.8 0.0
26/10:30pm 16.2 10.4 6.3 52 4.8 SSE 26 33 14 18 1018.9 1018.9 0.0
26/10:00pm 16.4 11.3 6.1 50 5.0 SSE 22 32 12 17 1018.8 1018.8 0.0
26/09:30pm 16.8 11.2 7.1 52 4.8 SSE 26 33 14 18 1018.5 1018.5 0.0
26/09:00pm 16.7 11.2 7.5 54 4.6 SSE 26 37 14 20 1018.4 1018.4 0.0
26/08:30pm 16.7 11.1 7.0 52 4.8 SSE 26 35 14 19 1018.1 1018.1 0.0
26/08:00pm 17.0 11.3 6.6 50 5.1 SSE 26 35 14 19 1018.0 1018.0 0.0
26/07:30pm 17.6 11.6 6.9 49 5.3 SSE 28 39 15 21 1017.8 1017.8 0.0
26/07:00pm 18.1 11.9 6.3 46 5.8 SSE 28 37 15 20 1017.6 1017.6 0.0
26/06:30pm 18.1 12.3 6.1 45 5.9 SSE 26 37 14 20 1017.3 1017.3 0.0
26/06:00pm 18.7 13.0 6.7 45 6.0 SSE 26 32 14 17 1017.4 1017.4 0.0
26/05:30pm 18.9 14.0 6.7 45 6.1 SSE 22 30 12 16 1017.4 1017.4 0.0
26/05:00pm 19.4 14.6 7.4 45 6.1 SSE 22 30 12 16 1017.6 1017.6 0.0
26/04:30pm 19.6 15.2 7.2 44 6.3 SE 20 26 11 14 1017.4 1017.4 0.0
26/04:00pm 19.8 15.3 6.9 43 6.5 SE 20 26 11 14 1017.5 1017.5 0.0
26/03:30pm 19.8 15.3 6.9 43 6.5 SSE 20 26 11 14 1017.7 1017.7 0.0
26/03:00pm 19.8 15.5 7.2 44 6.4 SSE 19 24 10 13 1017.8 1017.8 0.0
26/02:30pm 19.4 15.0 7.4 45 6.1 SE 20 28 11 15 1017.9 1017.9 0.0
26/02:00pm 19.0 14.5 6.8 45 6.1 SSE 20 30 11 16 1018.1 1018.1 0.0
26/01:30pm 19.8 15.2 5.8 40 6.9 SSE 19 26 10 14 1018.2 1018.2 0.0
26/01:00pm 19.5 15.2 5.4 39 6.9 SSE 17 22 9 12 1018.4 1018.4 0.0
26/12:30pm 19.9 15.6 5.4 38 7.1 SSE 17 28 9 15 1018.4 1018.4 0.0
26/12:00pm 19.6 15.0 5.5 39 6.9 SSE 19 28 10 15 1018.4 1018.4 0.0
26/11:30am 19.1 14.4 5.9 42 6.5 S 20 28 11 15 1018.6 1018.6 0.0
26/11:00am 18.3 13.4 6.9 47 5.7 SSE 22 30 12 16 1018.7 1018.7 0.0
26/10:30am 18.6 14.1 7.0 46 5.8 SSE 20 30 11 16 1018.7 1018.7 0.0
26/10:00am 18.5 14.3 7.4 48 5.6 SSE 19 26 10 14 1018.8 1018.8 0.0
26/09:30am 18.0 13.3 6.2 46 5.8 SSE 20 28 11 15 1018.8 1018.8 0.0
26/09:00am 17.5 13.1 6.5 48 5.4 SSE 19 24 10 13 1018.8 1018.8 0.0
26/08:30am 17.0 13.1 6.9 51 5.0 S 17 22 9 12 1018.7 1018.7 0.0
26/08:00am 16.8 13.5 8.1 56 4.4 S 15 20 8 11 1018.2 1018.2 0.0
26/07:30am 16.5 12.5 6.7 52 4.8 S 17 24 9 13 1018.1 1018.1 0.0
26/07:00am 16.4 12.0 4.7 46 5.5 SSW 17 24 9 13 1017.7 1017.7 0.0
26/06:30am 16.3 13.0 6.2 51 4.9 S 13 19 7 10 1017.4 1017.4 0.0
26/06:00am 16.2 12.2 6.6 53 4.7 S 17 22 9 12 1017.2 1017.2 0.0
26/05:30am 16.1 12.2 7.2 55 4.4 S 17 24 9 13 1017.0 1017.0 0.0
26/05:00am 16.1 12.2 7.0 54 4.5 S 17 22 9 12 1016.5 1016.5 0.0
26/04:30am 16.0 13.2 8.5 61 3.8 S 13 20 7 11 1016.4 1016.4 0.0
26/04:00am 16.0 13.6 8.5 61 3.8 SSW 11 15 6 8 1016.4 1016.4 0.0
26/03:30am 16.0 13.6 8.5 61 3.8 S 11 17 6 9 1016.3 1016.3 0.0
26/03:00am 16.1 12.1 6.5 53 4.7 SSW 17 20 9 11 1016.2 1016.2 0.0
26/02:30am 15.7 11.3 7.4 57 4.1 SSW 20 28 11 15 1016.3 1016.3 0.0
26/02:00am 15.4 10.4 9.6 68 3.0 SSW 26 32 14 17 1016.3 1016.3 0.0
26/01:30am 16.0 12.9 8.8 62 3.7 SSW 15 22 8 12 1016.4 1016.4 0.0
26/01:00am 16.2 12.2 6.6 53 4.7 SSW 17 24 9 13 1016.7 1016.7 0.0
26/12:30am 16.2 12.3 7.1 55 4.5 S 17 24 9 13 1016.9 1016.9 0.0
26/12:00am 16.2 11.6 6.6 53 4.7 S 20 28 11 15 1016.9 1016.9 0.0
 
Date/Time
CDT
Temp
°C
App
Temp
°C
Dew
Point
Rel
Hum
%
Delta-T
°C
Wind Press
QNH
hPa
Press
MSL
hPa
Rain
since 9 am
mm
Dir
 
Spd
km/h
Gust
km/h
Spd
kts
Gust
kts
25/11:30pm 16.4 12.2 7.4 55 4.5 SSW 19 28 10 15 1016.9 1016.9 0.0
25/11:00pm 16.4 12.2 7.6 56 4.4 S 19 28 10 15 1016.9 1016.9 0.0
25/10:30pm 16.7 11.3 6.2 50 5.1 SSW 24 30 13 16 1016.6 1016.6 0.0
25/10:00pm 16.9 12.0 6.8 51 5.0 S 22 28 12 15 1016.3 1016.3 0.0
25/09:30pm 17.1 12.7 7.3 52 4.9 S 20 30 11 16 1016.1 1016.1 0.0
25/09:00pm 17.2 11.6 7.2 51 5.0 SSW 26 37 14 20 1015.7 1015.7 0.0
25/08:30pm 17.5 12.4 5.8 46 5.7 S 22 30 12 16 1015.5 1015.5 0.0
25/08:00pm 17.9 11.9 5.3 43 6.1 SSW 26 35 14 19 1015.2 1015.2 0.0
25/07:30pm 18.3 12.5 6.4 45 5.9 S 26 39 14 21 1014.8 1014.8 0.0
25/07:00pm 18.6 13.3 6.8 46 5.9 S 24 32 13 17 1014.7 1014.7 0.0
25/06:30pm 20.1 14.6 7.4 43 6.5 SW 26 37 14 20 1014.4 1014.4 0.0
25/06:00pm 20.4 14.6 6.2 39 7.1 SW 26 39 14 21 1014.3 1014.3 0.0
25/05:30pm 20.4 13.9 6.5 40 7.0 SW 30 39 16 21 1014.2 1014.2 0.0
25/05:00pm 20.9 15.1 6.1 38 7.4 SW 26 35 14 19 1014.2 1014.2 0.0
25/04:30pm 20.8 14.9 5.7 37 7.5 SW 26 39 14 21 1014.2 1014.2 0.0
25/04:00pm 21.5 15.8 5.1 34 8.1 SW 24 35 13 19 1014.3 1014.3 0.0
25/03:30pm 21.0 15.4 3.6 32 8.3 SW 22 33 12 18 1014.4 1014.4 0.0
25/03:00pm 21.4 15.6 4.3 32 8.3 SW 24 37 13 20 1014.5 1014.5 0.0
25/02:30pm 21.5 15.3 4.5 33 8.3 SW 26 37 14 20 1014.6 1014.6 0.0
25/02:00pm 19.3 13.2 6.5 43 6.4 SW 28 39 15 21 1014.8 1014.8 0.0
25/01:30pm 19.6 13.9 4.7 37 7.2 SW 24 33 13 18 1014.9 1014.9 0.0
25/01:00pm 19.5 14.0 6.0 41 6.7 SW 24 33 13 18 1015.1 1015.1 0.0
25/12:30pm 20.0 15.1 5.3 38 7.2 SW 20 30 11 16 1015.1 1015.1 0.0
25/12:00pm 18.9 13.9 4.8 39 6.8 SW 20 28 11 15 1015.3 1015.3 0.0
25/11:30am 18.3 13.1 5.3 42 6.3 SSW 22 35 12 19 1015.3 1015.3 0.0
25/11:00am 18.6 12.9 4.9 40 6.6 SW 24 35 13 19 1014.9 1014.9 0.0
25/10:30am 19.2 13.4 2.5 33 7.7 SW 22 32 12 17 1014.7 1014.7 0.0
25/10:00am 18.0 12.0 3.1 37 6.9 SW 24 35 13 19 1014.6 1014.6 0.0
25/09:30am 17.4 11.7 4.8 43 6.0 SW 24 33 13 18 1014.3 1014.3 0.0
25/09:00am 16.2 11.7 6.1 51 4.9 SW 19 28 10 15 1014.0 1014.0 0.0
25/08:30am 16.0 11.3 5.3 49 5.1 SW 19 28 10 15 1013.6 1013.6 0.0
25/08:00am 16.0 11.4 6.3 52 4.7 SW 20 30 11 16 1013.1 1013.1 0.0
25/07:30am 15.9 12.0 5.4 49 5.0 SW 15 20 8 11 1012.8 1012.8 0.0
25/07:00am 15.3 10.8 4.3 48 5.1 SW 17 22 9 12 1012.3 1012.3 0.0
25/06:30am 14.5 10.2 3.5 47 5.0 SW 15 20 8 11 1011.7 1011.7 0.0
25/06:00am 15.2 10.3 4.2 48 5.1 SW 19 26 10 14 1011.3 1011.3 0.0
25/05:30am 15.2 11.5 6.1 54 4.4 SW 15 24 8 13 1011.1 1011.1 0.0
25/05:00am 15.1 11.4 6.4 56 4.2 WSW 15 20 8 11 1010.9 1010.9 0.0
25/04:30am 15.0 11.7 4.5 49 4.9 WSW 11 20 6 11 1010.6 1010.6 0.0
25/04:00am 15.5 11.2 5.4 51 4.8 SW 17 24 9 13 1010.5 1010.5 0.0
25/03:30am 15.5 10.4 6.0 53 4.6 SW 22 33 12 18 1010.3 1010.3 0.0
25/03:00am 16.0 11.2 7.4 56 4.3 SW 22 30 12 16 1010.4 1010.4 0.0
25/02:30am 15.8 11.3 7.1 56 4.3 SW 20 32 11 17 1010.3 1010.3 0.0
25/02:00am 16.0 11.1 8.5 61 3.8 SW 24 33 13 18 1010.3 1010.3 0.0
25/01:30am 16.5 12.0 8.7 60 4.0 SW 22 33 12 18 1010.4 1010.4 0.0
25/01:00am 16.7 12.1 8.3 57 4.3 SW 22 35 12 19 1010.4 1010.4 0.0
25/12:30am 16.7 12.5 9.6 63 3.7 SW 22 33 12 18 1010.4 1010.4 0.0
25/12:00am 16.8 12.3 10.0 64 3.6 SW 24 35 13 19 1010.1 1010.1 0.0
 
Date/Time
CDT
Temp
°C
App
Temp
°C
Dew
Point
Rel
Hum
%
Delta-T
°C
Wind Press
QNH
hPa
Press
MSL
hPa
Rain
since 9 am
mm
Dir
 
Spd
km/h
Gust
km/h
Spd
kts
Gust
kts
24/11:30pm 17.2 13.4 11.3 68 3.2 SW 22 35 12 19 1010.1 1010.1 0.0
24/11:00pm 17.2 12.6 11.1 67 3.3 SW 26 39 14 21 1010.0 1010.0 0.0
24/10:46pm 17.3 12.4 11.2 67 3.3 SW 28 46 15 25 1009.6 1009.6 0.0
24/10:30pm 17.1 13.4 11.4 69 3.1 WSW 22 37 12 20 1009.5 1009.5 0.0
24/10:00pm 16.4 13.4 13.6 83 1.6 WSW 22 41 12 22 1009.0 1009.0 0.0
24/09:46pm 17.0 12.9 13.8 81 1.8 WSW 28 50 15 27 1009.0 1009.0 0.0
24/09:30pm 16.9 14.3 15.0 88 1.1 W 22 32 12 17 1009.0 1009.0 0.0
24/09:18pm 17.6 14.2 14.7 83 1.7 W 26 52 14 28 1008.9 1008.9 0.0
24/09:17pm 18.1 14.8 14.1 77 2.3 W 24 52 13 28 1008.8 1008.8 0.0
24/09:00pm 17.5 15.9 12.9 74 2.6 W 13 20 7 11 1008.4 1008.4 0.0
24/08:30pm 18.1 15.4 13.5 74 2.6 WSW 20 32 11 17 1008.4 1008.4 0.0
24/08:00pm 19.1 15.0 13.9 72 3.0 WSW 28 37 15 20 1008.1 1008.1 0.0
24/07:30pm 21.0 16.5 12.5 58 4.8 WSW 28 37 15 20 1007.4 1007.4 0.0
24/07:00pm 21.9 18.0 12.0 53 5.6 WSW 24 33 13 18 1006.9 1006.9 0.0
24/06:30pm 22.5 16.4 10.3 46 6.7 W 33 44 18 24 1006.5 1006.5 0.0
24/06:00pm 23.9 19.2 11.9 47 6.8 WSW 28 43 15 23 1006.6 1006.6 0.0
24/05:30pm 23.7 18.2 10.5 43 7.3 W 30 46 16 25 1006.4 1006.4 0.0
24/05:00pm 23.1 17.9 11.5 48 6.5 WSW 30 41 16 22 1006.6 1006.6 0.0
24/04:30pm 25.0 19.4 10.2 39 8.2 WSW 30 44 16 24 1006.7 1006.7 0.0
24/04:00pm 23.2 17.6 10.3 44 7.1 WSW 30 44 16 24 1006.8 1006.8 0.0
24/03:30pm 25.0 20.4 10.9 41 7.9 WSW 26 39 14 21 1007.1 1007.1 0.0
24/03:00pm 24.1 19.1 8.1 36 8.5 WSW 24 35 13 19 1007.1 1007.1 0.0
24/02:30pm 24.6 19.2 9.4 38 8.3 W 28 43 15 23 1007.2 1007.2 0.0
24/02:00pm 23.8 19.5 9.5 40 7.8 WSW 22 33 12 18 1007.3 1007.3 0.0

Other Formats:

Comma delimited format used in spreadsheet applications
http://www.bom.gov.au/fwo/IDS60801/IDS60801.94809.axf

JavaScript Object Notation format (JSON) in row-major order
http://www.bom.gov.au/fwo/IDS60801/IDS60801.94809.json